Airfield :
LOGIN :

Register | Disclaimer

   EN    FR    IT 

 










Legend :    VFR   Marginal VFR   IFR   Intensive IFR   Very Intensive IFR
Visi :
Ceiling :
>= 8 km
>= 3000ft
5 to 8 km
1000 to 3000 ft
1500m to 5 km
500 to 1000 ft
800 to 1500m
200 to 500 ft
< 800m
< 200 ft
Symbols :   Thunderstorms  Fog  Heavy snow  Heavy precipitations  Wind > 20 kt
SIGMETs :     Misc.  Thunderstorms  Icing  Turbulence  Mountain Waves  Volcanic Ashes






- Airport Elevation : 302 ft
- IATA code : CGN


EDDK - Cologne Bonn

CURRENT METAR :
  • 161020Z 03008KT 350V050 9999 SCT047 09/M02 Q1027 NOSIG

EXPIRED METARs :
  • 160950Z 03010KT 350V060 9999 FEW045 09/M02 Q1027 NOSIG
  • 160920Z 02006KT 340V110 9999 FEW045 08/M01 Q1027 NOSIG
  • 160850Z 01005KT 330V050 9999 FEW040 07/M01 Q1027 NOSIG
  • 160820Z 01003KT 340V070 9999 FEW040 06/M02 Q1027 NOSIG
  • 160750Z 04004KT 350V090 CAVOK 06/M02 Q1027 NOSIG

TAF TAF EDDK
Valid from the 16 at 06:00 until the 17 at 12:00 UTC


160500Z 1606/1712 VRB03KT CAVOK
BECMG 1608/1610 01009KT
BECMG 1619/1621 VRB03KT
BECMG 1708/1710 35008KT



MET'MAP, your aeronautical weather chart ! - Copyright ORBIFLY December 2007 - Disclaimer

ORBIFLY MET'MAP TEAM :

Programming & Development : Alexandra Zaïnal
Concept & original design : Baudouin d'Aumeries
Assistance for programming : Marc-Olivier Méhu
Technical & hardware support : Manuel Goepfert

Contact : metmap@orbifly.com




SOURCES & CREDITS :

   NOAA